createdAt,value
2018-10-02T00:00:16.563Z,91.70
2018-10-02T00:02:45.241Z,91.80
2018-10-02T00:05:14.205Z,91.60
2018-10-02T00:07:42.935Z,91.60
2018-10-02T00:10:11.590Z,91.60
2018-10-02T00:12:45.752Z,91.70
2018-10-02T00:15:14.488Z,91.60
2018-10-02T00:17:43.204Z,91.70
2018-10-02T00:20:12.002Z,91.60
2018-10-02T00:22:40.658Z,91.80
2018-10-02T00:25:09.342Z,92.10
2018-10-02T00:27:38.099Z,92.30
2018-10-02T00:30:06.904Z,92.40
2018-10-02T00:32:35.690Z,91.40
2018-10-02T00:35:04.521Z,91.70
2018-10-02T00:37:33.227Z,91.30
2018-10-02T00:40:01.929Z,92.00
2018-10-02T00:42:30.739Z,91.90
2018-10-02T00:44:59.399Z,91.90
2018-10-02T00:47:28.114Z,91.30
2018-10-02T00:49:56.848Z,91.30
2018-10-02T00:52:25.580Z,91.20
2018-10-02T00:54:54.271Z,91.00
2018-10-02T00:57:22.921Z,91.20
2018-10-02T00:59:51.586Z,91.30
2018-10-02T01:02:20.327Z,91.30
2018-10-02T01:04:49.166Z,91.60
2018-10-02T01:07:17.783Z,91.80
2018-10-02T01:09:47.903Z,92.00
2018-10-02T01:12:16.702Z,92.30
2018-10-02T01:14:45.907Z,92.20
2018-10-02T01:17:16.690Z,92.40
2018-10-02T01:19:45.363Z,92.70
2018-10-02T01:22:15.203Z,92.90
2018-10-02T01:24:44.353Z,92.90
2018-10-02T01:27:13.051Z,92.80
2018-10-02T01:29:42.429Z,92.90
2018-10-02T01:32:11.814Z,92.90
2018-10-02T01:34:41.440Z,93.00
2018-10-02T01:37:11.763Z,93.00
2018-10-02T01:39:40.522Z,92.70
2018-10-02T01:42:09.194Z,92.50
2018-10-02T01:44:38.039Z,92.40
2018-10-02T01:47:06.672Z,92.20
2018-10-02T01:49:35.480Z,92.30
2018-10-02T01:52:04.328Z,92.10
2018-10-02T01:54:33.375Z,92.20
2018-10-02T01:57:02.246Z,92.40
2018-10-02T01:59:31.022Z,92.20
2018-10-02T02:02:00.951Z,92.60
2018-10-02T02:04:29.681Z,92.90
2018-10-02T02:06:58.384Z,92.90
2018-10-02T02:09:27.502Z,92.60
2018-10-02T02:11:56.128Z,92.60
2018-10-02T02:14:27.246Z,92.40
2018-10-02T02:16:59.737Z,92.60
2018-10-02T02:19:28.637Z,92.60
2018-10-02T02:21:58.027Z,92.90
2018-10-02T02:24:26.709Z,93.00
2018-10-02T02:26:55.278Z,93.00
2018-10-02T02:29:23.971Z,93.40
2018-10-02T02:31:52.702Z,93.20
2018-10-02T02:34:21.776Z,93.20
2018-10-02T02:36:50.434Z,93.20
2018-10-02T02:39:19.175Z,93.30
2018-10-02T02:41:47.998Z,93.20
2018-10-02T02:44:16.873Z,93.20
2018-10-02T02:46:45.596Z,93.10
2018-10-02T02:49:19.688Z,93.50
2018-10-02T02:51:48.474Z,93.30
2018-10-02T02:54:17.373Z,93.30
2018-10-02T02:56:46.323Z,93.20
2018-10-02T02:59:15.083Z,92.70
2018-10-02T03:01:45.293Z,92.30
2018-10-02T03:04:14.005Z,91.40
2018-10-02T03:06:42.722Z,91.60
2018-10-02T03:09:12.626Z,91.40
2018-10-02T03:11:41.650Z,91.20
2018-10-02T03:14:10.499Z,91.20
2018-10-02T03:16:39.364Z,91.20
2018-10-02T03:19:09.748Z,90.90
2018-10-02T03:21:38.988Z,91.10
2018-10-02T03:24:09.350Z,91.10
2018-10-02T03:26:38.515Z,91.30
2018-10-02T03:29:10.817Z,90.90
2018-10-02T03:31:40.706Z,91.20
2018-10-02T03:34:12.132Z,91.30
2018-10-02T03:36:40.868Z,91.20
2018-10-02T03:39:12.612Z,91.00
2018-10-02T03:41:42.481Z,91.60
2018-10-02T03:44:12.225Z,91.30
2018-10-02T03:46:41.096Z,91.20
2018-10-02T03:49:11.830Z,91.90
2018-10-02T03:51:42.423Z,91.40
2018-10-02T03:54:11.138Z,92.00
2018-10-02T03:56:44.331Z,92.00
2018-10-02T03:59:16.322Z,92.10
2018-10-02T04:01:45.087Z,91.50
2018-10-02T04:04:16.319Z,92.00
2018-10-02T04:06:45.067Z,92.10
2018-10-02T04:09:16.031Z,92.10
2018-10-02T04:11:44.900Z,92.30
2018-10-02T04:14:13.770Z,92.40
2018-10-02T04:16:42.798Z,92.20
2018-10-02T04:19:13.178Z,91.90
2018-10-02T04:21:42.283Z,92.00
2018-10-02T04:24:12.366Z,92.40
2018-10-02T04:26:48.544Z,92.30
2018-10-02T04:29:17.289Z,92.20
2018-10-02T04:31:46.144Z,92.10
2018-10-02T04:34:22.994Z,92.20
2018-10-02T04:36:52.202Z,92.20
2018-10-02T04:39:21.006Z,92.10
2018-10-02T04:41:55.702Z,91.90
2018-10-02T04:44:24.326Z,91.80
2018-10-02T04:46:52.993Z,91.90
2018-10-02T04:49:21.867Z,91.90
2018-10-02T04:51:55.580Z,92.00
2018-10-02T04:54:29.023Z,92.10
2018-10-02T04:56:57.921Z,91.90
2018-10-02T04:59:26.720Z,92.20
2018-10-02T05:01:57.597Z,92.20
2018-10-02T05:04:26.625Z,92.20
2018-10-02T05:06:55.216Z,92.30
2018-10-02T05:09:24.140Z,91.80
2018-10-02T05:11:52.969Z,91.90
2018-10-02T05:14:29.296Z,91.90
2018-10-02T05:16:58.116Z,92.20
2018-10-02T05:19:26.939Z,91.60
2018-10-02T05:21:55.691Z,91.60
2018-10-02T05:24:24.856Z,91.70
2018-10-02T05:26:53.790Z,91.90
2018-10-02T05:29:22.460Z,91.00
2018-10-02T05:31:53.652Z,92.30
2018-10-02T05:34:25.679Z,92.50
2018-10-02T05:36:55.197Z,92.40
2018-10-02T05:39:24.022Z,92.50
2018-10-02T05:41:52.724Z,92.50
2018-10-02T05:44:22.667Z,92.40
2018-10-02T05:46:51.441Z,91.40
2018-10-02T05:49:20.165Z,92.50
2018-10-02T05:51:50.458Z,92.50
2018-10-02T05:54:20.096Z,92.30
2018-10-02T05:56:49.866Z,92.50
2018-10-02T05:59:18.541Z,92.70
2018-10-02T06:01:47.791Z,92.60
2018-10-02T06:04:18.244Z,92.70
2018-10-02T06:06:47.111Z,92.80
2018-10-02T06:09:16.052Z,93.10
2018-10-02T06:11:48.395Z,92.80
2018-10-02T06:14:17.721Z,92.70
2018-10-02T06:16:46.351Z,93.20
2018-10-02T06:19:15.471Z,91.60
2018-10-02T06:21:44.257Z,92.70
2018-10-02T06:24:16.591Z,92.80
2018-10-02T06:26:45.255Z,92.00
2018-10-02T06:29:23.656Z,92.90
2018-10-02T06:31:52.594Z,92.50
2018-10-02T06:34:26.807Z,91.70
2018-10-02T06:36:59.424Z,91.60
2018-10-02T06:39:37.601Z,91.20
2018-10-02T06:42:11.877Z,91.50
2018-10-02T06:44:42.407Z,91.70
2018-10-02T06:47:20.139Z,91.50
2018-10-02T06:49:53.312Z,91.00
2018-10-02T06:52:50.703Z,91.40
2018-10-02T06:55:41.789Z,91.00
2018-10-02T07:01:29.711Z,91.20
2018-10-02T07:04:04.862Z,90.90
2018-10-02T07:06:42.916Z,90.50
2018-10-02T07:09:28.117Z,90.40
2018-10-02T07:12:00.964Z,90.20
2018-10-02T07:14:39.184Z,89.70
2018-10-02T07:17:23.857Z,89.60
2018-10-02T07:20:03.754Z,90.00
2018-10-02T07:22:44.601Z,90.00
2018-10-02T07:25:23.234Z,88.50
2018-10-02T07:28:11.079Z,88.20
2018-10-02T07:30:49.769Z,87.60
2018-10-02T07:33:33.175Z,87.50
2018-10-02T07:38:59.052Z,84.40
2018-10-02T07:41:33.882Z,86.00
2018-10-02T07:46:52.864Z,84.70
2018-10-02T07:49:32.318Z,85.40
2018-10-02T07:52:08.790Z,85.10
2018-10-02T07:54:47.884Z,84.30
2018-10-02T07:57:19.586Z,83.00
2018-10-02T08:00:00.828Z,81.40
2018-10-02T08:02:32.095Z,81.50
2018-10-02T08:05:06.073Z,81.80
2018-10-02T08:07:45.521Z,82.70
2018-10-02T08:10:29.831Z,81.00
2018-10-02T08:12:59.855Z,80.40
2018-10-02T08:15:30.213Z,80.10
2018-10-02T08:18:05.057Z,80.90
2018-10-02T08:20:36.263Z,80.50
2018-10-02T08:23:17.570Z,80.90
2018-10-02T08:25:49.516Z,80.80
2018-10-02T08:28:25.364Z,80.90
2018-10-02T08:30:56.543Z,80.30
2018-10-02T08:33:26.677Z,79.30
2018-10-02T08:36:02.655Z,78.60
2018-10-02T08:38:32.345Z,78.30
2018-10-02T08:41:02.285Z,78.20
2018-10-02T08:43:32.243Z,78.60
2018-10-02T08:46:03.079Z,76.50
2018-10-02T08:48:33.691Z,76.30
2018-10-02T08:51:12.761Z,74.60
2018-10-02T08:53:48.929Z,75.80
2018-10-02T08:56:30.493Z,76.40
2018-10-02T08:59:05.182Z,76.10
2018-10-02T09:01:37.255Z,75.40
2018-10-02T09:04:09.835Z,75.60
2018-10-02T09:06:40.077Z,77.20
2018-10-02T09:09:15.971Z,75.70
2018-10-02T09:19:43.439Z,74.00
2018-10-02T09:22:16.805Z,73.90
2018-10-02T09:24:51.357Z,73.60
2018-10-02T09:30:04.513Z,72.20
2018-10-02T09:32:40.847Z,72.30
2018-10-02T09:35:15.798Z,72.30
2018-10-02T09:37:58.280Z,71.30
2018-10-02T09:40:37.155Z,70.90
2018-10-02T09:43:12.013Z,70.30
2018-10-02T09:48:29.019Z,68.70
2018-10-02T09:53:48.859Z,67.50
2018-10-02T09:56:29.199Z,68.10
2018-10-02T10:01:47.224Z,68.80
2018-10-02T10:04:29.384Z,67.80
2018-10-02T10:07:07.357Z,66.90
2018-10-02T10:17:40.882Z,68.20
2018-10-02T10:20:15.362Z,68.40
2018-10-02T10:22:47.714Z,68.00
2018-10-02T10:25:23.888Z,67.70
2018-10-02T10:28:03.213Z,67.40
2018-10-02T10:33:25.450Z,63.00
2018-10-02T10:35:57.747Z,59.40
2018-10-02T10:38:31.521Z,60.80
2018-10-02T10:41:04.621Z,61.40
2018-10-02T10:43:36.841Z,65.10
2018-10-02T10:46:07.448Z,66.60
2018-10-02T10:48:48.588Z,68.10
2018-10-02T10:56:34.493Z,67.30
2018-10-02T10:59:14.086Z,62.80
2018-10-02T11:01:51.275Z,63.40
2018-10-02T11:12:42.832Z,70.20
2018-10-02T11:15:20.722Z,70.80
2018-10-02T11:17:56.096Z,71.00
2018-10-02T11:20:36.948Z,68.40
2018-10-02T11:26:01.143Z,70.10
2018-10-02T11:28:42.348Z,69.80
2018-10-02T11:31:19.189Z,64.90
2018-10-02T11:41:44.972Z,54.40
2018-10-02T11:44:25.005Z,53.50
2018-10-02T11:46:59.658Z,52.90
2018-10-02T11:49:31.109Z,53.30
2018-10-02T11:52:09.912Z,53.90
2018-10-02T11:54:44.883Z,54.70
2018-10-02T12:00:11.400Z,60.50
2018-10-02T12:05:35.042Z,63.30
2018-10-02T12:08:13.610Z,57.50
2018-10-02T12:13:27.437Z,56.10
2018-10-02T12:15:57.161Z,58.50
2018-10-02T12:18:36.052Z,59.60
2018-10-02T12:21:14.506Z,60.40
2018-10-02T12:23:55.077Z,58.80
2018-10-02T12:26:25.006Z,58.50
2018-10-02T12:29:02.595Z,60.10
2018-10-02T12:31:34.631Z,58.70
2018-10-02T12:34:10.991Z,53.80
2018-10-02T12:36:49.425Z,51.20
2018-10-02T12:39:21.012Z,50.20
2018-10-02T12:41:52.231Z,48.70
2018-10-02T12:49:52.763Z,47.00
2018-10-02T12:52:27.018Z,45.80
2018-10-02T12:55:04.903Z,45.60
2018-10-02T12:57:36.061Z,48.20
2018-10-02T13:00:10.730Z,49.40
2018-10-02T13:02:41.540Z,47.30
2018-10-02T13:05:14.027Z,45.50
2018-10-02T13:07:46.632Z,46.00
2018-10-02T13:10:22.313Z,44.50
2018-10-02T13:18:10.322Z,49.10
2018-10-02T13:20:53.370Z,51.50
2018-10-02T13:23:31.781Z,53.80
2018-10-02T13:26:02.884Z,53.00
2018-10-02T13:28:36.272Z,52.60
2018-10-02T13:31:17.503Z,52.70
2018-10-02T13:33:55.630Z,51.90
2018-10-02T13:36:30.384Z,52.40
2018-10-02T13:41:41.453Z,52.30
2018-10-02T13:44:12.845Z,51.90
2018-10-02T13:46:43.813Z,52.50
2018-10-02T13:49:17.901Z,52.20
2018-10-02T13:54:30.766Z,52.30
2018-10-02T13:57:01.671Z,53.10
2018-10-02T13:59:32.317Z,53.40
2018-10-02T14:02:06.706Z,53.50
2018-10-02T14:04:37.046Z,55.10
2018-10-02T14:07:07.135Z,55.50
2018-10-02T14:09:37.316Z,55.60
2018-10-02T14:12:07.273Z,56.10
2018-10-02T14:14:37.078Z,55.60
2018-10-02T14:17:07.376Z,53.70
2018-10-02T14:19:37.429Z,55.30
2018-10-02T14:22:07.996Z,55.30
2018-10-02T14:24:38.042Z,56.40
2018-10-02T14:27:11.779Z,55.80
2018-10-02T14:29:41.972Z,56.00
2018-10-02T14:32:14.525Z,56.00
2018-10-02T14:34:44.889Z,56.50
2018-10-02T14:37:16.174Z,56.00
2018-10-02T14:46:55.662Z,56.30
2018-10-02T14:55:45.152Z,55.10
2018-10-02T14:58:14.609Z,55.20
2018-10-02T15:00:47.138Z,55.30
2018-10-02T15:03:41.682Z,55.60
2018-10-02T15:06:27.287Z,56.10
2018-10-02T15:08:57.023Z,56.00
2018-10-02T15:11:26.803Z,56.60
2018-10-02T15:13:55.737Z,56.80
2018-10-02T15:16:25.634Z,56.60
2018-10-02T15:18:55.189Z,56.80
2018-10-02T15:21:24.089Z,56.40
2018-10-02T15:23:53.461Z,56.80
2018-10-02T15:26:23.097Z,56.70
2018-10-02T15:28:54.129Z,57.40
2018-10-02T15:31:23.310Z,57.60
2018-10-02T15:33:52.334Z,57.30
2018-10-02T15:36:23.734Z,57.30
2018-10-02T15:38:52.613Z,57.60
2018-10-02T15:41:21.756Z,57.60
2018-10-02T15:43:50.761Z,57.70
2018-10-02T15:46:19.650Z,58.40
2018-10-02T15:48:48.731Z,58.30
2018-10-02T15:51:17.872Z,58.40
2018-10-02T15:53:46.899Z,58.60
2018-10-02T15:56:17.682Z,58.70
2018-10-02T15:58:46.729Z,59.00
2018-10-02T16:01:16.006Z,59.30
2018-10-02T16:03:47.780Z,59.70
2018-10-02T16:08:54.887Z,59.50
2018-10-02T16:11:24.187Z,60.50
2018-10-02T16:13:53.674Z,60.80
2018-10-02T16:16:23.159Z,61.20
2018-10-02T16:18:52.704Z,61.30
2018-10-02T16:21:21.650Z,61.40
2018-10-02T16:23:51.039Z,61.30
2018-10-02T16:26:20.471Z,61.30
2018-10-02T16:28:49.682Z,61.30
2018-10-02T16:31:26.981Z,61.20
2018-10-02T16:34:04.793Z,61.20
2018-10-02T16:36:40.748Z,61.10
2018-10-02T16:39:13.302Z,60.60
2018-10-02T16:41:42.383Z,61.30
2018-10-02T16:47:00.366Z,61.00
2018-10-02T16:49:29.789Z,61.30
2018-10-02T16:51:59.081Z,61.20
2018-10-02T16:54:28.321Z,61.10
2018-10-02T16:56:57.550Z,61.30
2018-10-02T16:59:27.086Z,62.00
2018-10-02T17:01:56.199Z,62.90
2018-10-02T17:04:25.748Z,62.30
2018-10-02T17:06:58.472Z,62.90
2018-10-02T17:09:27.905Z,62.90
2018-10-02T17:11:56.874Z,62.90
2018-10-02T17:14:26.117Z,62.70
2018-10-02T17:16:56.903Z,61.30
2018-10-02T17:19:26.460Z,63.60
2018-10-02T17:21:55.609Z,63.60
2018-10-02T17:24:24.950Z,63.40
2018-10-02T17:26:55.172Z,63.30
2018-10-02T17:29:26.737Z,63.40
2018-10-02T17:31:55.895Z,63.40
2018-10-02T17:34:25.880Z,63.80
2018-10-02T17:36:55.102Z,64.20
2018-10-02T17:39:24.071Z,64.80
2018-10-02T17:41:53.208Z,64.90
2018-10-02T17:44:22.391Z,64.40
2018-10-02T17:46:51.538Z,65.00
2018-10-02T17:49:23.887Z,65.20
2018-10-02T17:51:53.517Z,65.20
2018-10-02T17:54:23.126Z,65.60
2018-10-02T18:01:16.100Z,66.80
2018-10-02T18:03:51.009Z,66.50
2018-10-02T18:06:20.702Z,66.50
2018-10-02T18:08:49.925Z,66.50
2018-10-02T18:11:22.370Z,66.50
2018-10-02T18:13:51.522Z,66.50
2018-10-02T18:16:20.981Z,66.80
2018-10-02T18:18:50.141Z,66.70
2018-10-02T18:21:19.573Z,67.10
2018-10-02T18:23:49.072Z,66.70
2018-10-02T18:26:18.308Z,66.80
2018-10-02T18:28:49.766Z,67.20
2018-10-02T18:31:18.818Z,67.30
2018-10-02T18:33:47.939Z,67.30
2018-10-02T18:36:16.867Z,67.80
2018-10-02T18:38:45.897Z,68.30
2018-10-02T18:41:14.761Z,68.40
2018-10-02T18:43:43.953Z,69.00
2018-10-02T18:46:12.940Z,71.00
2018-10-02T18:48:42.171Z,67.80
2018-10-02T18:51:11.457Z,69.70
2018-10-02T18:53:42.345Z,69.70
2018-10-02T18:56:11.500Z,69.80
2018-10-02T18:58:40.757Z,70.60
2018-10-02T19:01:09.885Z,70.50
2018-10-02T19:03:39.621Z,71.00
2018-10-02T19:06:08.800Z,71.20
2018-10-02T19:08:43.000Z,71.50
2018-10-02T19:11:17.118Z,72.50
2018-10-02T19:13:46.672Z,71.70
2018-10-02T19:16:20.898Z,71.70
2018-10-02T19:18:52.849Z,71.80
2018-10-02T19:21:22.096Z,71.90
2018-10-02T19:23:51.319Z,72.00
2018-10-02T19:26:22.887Z,72.00
2018-10-02T19:28:52.727Z,71.70
2018-10-02T19:31:26.808Z,72.20
2018-10-02T19:33:55.919Z,71.90
2018-10-02T19:36:24.587Z,72.00
2018-10-02T19:39:01.459Z,72.10
2018-10-02T19:41:30.618Z,72.00
2018-10-02T19:43:59.295Z,71.90
2018-10-02T19:46:37.804Z,70.60
2018-10-02T19:49:06.542Z,71.50
2018-10-02T19:51:40.356Z,71.60
2018-10-02T19:54:09.114Z,71.60
2018-10-02T19:56:37.842Z,71.70
2018-10-02T19:59:06.580Z,72.20
2018-10-02T20:01:35.259Z,72.30
2018-10-02T20:04:03.953Z,72.30
2018-10-02T20:06:32.579Z,72.30
2018-10-02T20:09:01.348Z,72.50
2018-10-02T20:11:31.099Z,73.70
2018-10-02T20:14:00.815Z,72.60
2018-10-02T20:16:29.669Z,72.90
2018-10-02T20:18:59.062Z,73.10
2018-10-02T20:21:27.974Z,73.00
2018-10-02T20:23:56.746Z,73.00
2018-10-02T20:26:25.728Z,73.00
2018-10-02T20:28:54.479Z,72.80
2018-10-02T20:31:23.885Z,73.70
2018-10-02T20:33:53.207Z,73.20
2018-10-02T20:36:22.430Z,73.30
2018-10-02T20:38:51.333Z,72.50
2018-10-02T20:41:20.056Z,73.20
2018-10-02T20:43:48.886Z,73.70
2018-10-02T20:46:17.640Z,74.10
2018-10-02T20:48:46.341Z,74.00
2018-10-02T20:51:15.069Z,73.70
2018-10-02T20:53:43.941Z,73.90
2018-10-02T20:56:12.659Z,73.70
2018-10-02T20:58:41.247Z,73.80
2018-10-02T21:01:11.367Z,73.90
2018-10-02T21:03:39.952Z,73.30
2018-10-02T21:06:09.540Z,73.40
2018-10-02T21:08:38.293Z,73.60
2018-10-02T21:11:07.043Z,73.80
2018-10-02T21:13:35.709Z,73.90
2018-10-02T21:16:04.629Z,73.80
2018-10-02T21:18:33.392Z,73.40
2018-10-02T21:21:02.023Z,72.40
2018-10-02T21:23:30.788Z,72.50
2018-10-02T21:25:59.535Z,72.40
2018-10-02T21:28:28.219Z,72.50
2018-10-02T21:30:56.895Z,73.50
2018-10-02T21:33:25.586Z,73.00
2018-10-02T21:35:54.287Z,72.50
2018-10-02T21:38:23.599Z,72.80
2018-10-02T21:40:53.924Z,71.10
2018-10-02T21:43:22.626Z,72.70
2018-10-02T21:45:51.362Z,72.40
2018-10-02T21:48:20.289Z,72.20
2018-10-02T21:50:48.859Z,72.40
2018-10-02T21:53:17.652Z,70.70
2018-10-02T21:56:48.839Z,72.30
2018-10-02T21:59:17.553Z,72.30
2018-10-02T22:01:46.198Z,72.30
2018-10-02T22:04:14.961Z,72.30
2018-10-02T22:06:43.799Z,73.10
2018-10-02T22:09:13.500Z,72.40
2018-10-02T22:11:42.196Z,73.00
2018-10-02T22:14:10.947Z,72.40
2018-10-02T22:16:39.602Z,73.00
2018-10-02T22:19:08.763Z,73.20
2018-10-02T22:21:37.525Z,73.40
2018-10-02T22:24:06.251Z,73.30
2018-10-02T22:26:34.867Z,73.80
2018-10-02T22:29:03.923Z,74.10
2018-10-02T22:31:32.586Z,74.30
2018-10-02T22:34:01.590Z,74.50
2018-10-02T22:36:30.278Z,74.50
2018-10-02T22:38:59.098Z,74.50
2018-10-02T22:41:27.852Z,74.80
2018-10-02T22:43:56.541Z,75.40
2018-10-02T22:46:25.276Z,75.80
2018-10-02T22:48:56.252Z,76.70
2018-10-02T22:51:25.016Z,77.10
2018-10-02T22:53:53.812Z,77.30
2018-10-02T22:56:22.731Z,77.60
2018-10-02T22:58:51.511Z,75.50
2018-10-02T23:01:20.407Z,77.50
2018-10-02T23:03:49.099Z,77.40
2018-10-02T23:06:17.749Z,77.40
2018-10-02T23:08:48.906Z,77.20
2018-10-02T23:11:17.520Z,77.20
2018-10-02T23:13:47.703Z,77.10
2018-10-02T23:16:16.418Z,77.00
2018-10-02T23:18:47.118Z,77.40
2018-10-02T23:21:15.736Z,77.70
2018-10-02T23:23:46.528Z,77.70
2018-10-02T23:26:16.524Z,77.80
2018-10-02T23:28:45.374Z,77.80
2018-10-02T23:31:14.114Z,78.50
2018-10-02T23:33:42.898Z,79.10
2018-10-02T23:36:11.651Z,79.50
2018-10-02T23:38:40.386Z,79.40
2018-10-02T23:41:09.201Z,79.90
2018-10-02T23:43:37.903Z,80.40
2018-10-02T23:46:06.653Z,80.40
2018-10-02T23:48:35.245Z,80.80
2018-10-02T23:51:04.026Z,80.80
2018-10-02T23:53:32.611Z,81.10
2018-10-02T23:56:01.386Z,81.60
2018-10-02T23:58:29.994Z,82.00
